Time;durP1;ratioP1;P1;durP2;ratioP2;P2;SDS_P1;SDS_P2;PMS_P1;PMS_P2;Temp;Humidity;BMP_temperature;BMP_pressure;BME280_temperature;BME280_humidity;BME280_pressure;Samples;Min_cycle;Max_cycle;Signal;HPM_P1;HPM_P2
2021/06/27 00:00:31;;;;;;;0.80;0.77;;;13.60;99.90;;;;;;2089173;28;20176;-72
2021/06/27 00:01:32;;;;;;;0.57;0.57;;;13.60;99.90;;;;;;2089199;28;20207;-73
2021/06/27 00:02:32;;;;;;;0.77;0.77;;;13.60;99.90;;;;;;2096666;28;20290;-73
2021/06/27 00:03:33;;;;;;;0.80;0.80;;;13.60;99.90;;;;;;2096882;28;20180;-72
2021/06/27 00:04:34;;;;;;;1.30;1.20;;;13.60;99.90;;;;;;2088638;28;20184;-72
2021/06/27 00:05:37;;;;;;;1.07;1.07;;;13.50;99.90;;;;;;2088280;28;20227;-74
2021/06/27 00:06:38;;;;;;;0.70;0.70;;;13.50;99.90;;;;;;2080649;28;20432;-72
2021/06/27 00:07:39;;;;;;;1.20;1.10;;;13.50;99.90;;;;;;2088399;28;20191;-73
2021/06/27 00:08:40;;;;;;;1.20;1.13;;;13.50;99.90;;;;;;2088622;28;20218;-73
2021/06/27 00:09:41;;;;;;;0.70;0.70;;;13.50;99.90;;;;;;2088477;28;20250;-72
2021/06/27 00:10:45;;;;;;;0.80;0.80;;;13.50;99.90;;;;;;2088633;28;20226;-73
2021/06/27 00:11:46;;;;;;;1.13;1.02;;;13.50;99.90;;;;;;2080458;28;20185;-72
2021/06/27 00:12:47;;;;;;;1.15;1.08;;;13.50;99.90;;;;;;2088330;28;20188;-73
2021/06/27 00:13:49;;;;;;;2.47;1.10;;;13.40;99.90;;;;;;2089107;28;20207;-72
2021/06/27 00:14:50;;;;;;;1.33;1.30;;;13.40;99.90;;;;;;2096871;28;20259;-72
2021/06/27 00:15:51;;;;;;;0.75;0.75;;;13.40;99.90;;;;;;2096694;28;20176;-72
2021/06/27 00:16:53;;;;;;;0.98;0.98;;;13.40;99.90;;;;;;2089083;28;20180;-73
2021/06/27 00:17:54;;;;;;;1.95;1.52;;;13.40;99.90;;;;;;2088969;28;20306;-72
2021/06/27 00:18:56;;;;;;;1.15;1.10;;;13.40;99.90;;;;;;2089119;28;20263;-72
2021/06/27 00:19:56;;;;;;;2.00;0.85;;;13.30;99.90;;;;;;2089060;28;20242;-72
2021/06/27 00:21:01;;;;;;;0.63;0.63;;;13.30;99.90;;;;;;2096795;28;20172;-72
2021/06/27 00:22:02;;;;;;;0.98;0.93;;;13.30;99.90;;;;;;2088420;28;20690;-72
2021/06/27 00:23:04;;;;;;;0.55;0.55;;;13.30;99.90;;;;;;2088433;28;20192;-73
2021/06/27 00:24:06;;;;;;;1.17;1.08;;;13.30;99.90;;;;;;2096823;28;20199;-72
2021/06/27 00:25:10;;;;;;;2.08;1.98;;;13.30;99.90;;;;;;2096795;28;20178;-72
2021/06/27 00:26:14;;;;;;;1.52;1.42;;;13.20;99.90;;;;;;2097710;28;20211;-72
2021/06/27 00:27:15;;;;;;;1.10;1.02;;;13.20;99.90;;;;;;2098657;28;20610;-73
2021/06/27 00:28:16;;;;;;;0.70;0.70;;;13.20;99.90;;;;;;2090342;28;20232;-73
2021/06/27 00:29:16;;;;;;;1.25;1.15;;;13.20;99.90;;;;;;2091260;28;20232;-72
2021/06/27 00:30:20;;;;;;;2.37;1.00;;;13.20;99.90;;;;;;2091135;28;20663;-72
2021/06/27 00:31:22;;;;;;;0.70;0.70;;;13.20;99.90;;;;;;2090819;28;20188;-72
2021/06/27 00:32:22;;;;;;;0.90;0.90;;;13.20;99.90;;;;;;2089622;28;20184;-72
2021/06/27 00:33:24;;;;;;;1.10;1.00;;;13.20;99.90;;;;;;2089879;28;20702;-72
2021/06/27 00:34:24;;;;;;;1.67;1.27;;;13.10;99.90;;;;;;2090584;28;20181;-72
2021/06/27 00:35:26;;;;;;;1.10;0.77;;;13.10;99.90;;;;;;2090713;28;20204;-72
2021/06/27 00:36:27;;;;;;;1.35;1.25;;;13.10;99.90;;;;;;2090556;28;20181;-73
2021/06/27 00:37:28;;;;;;;1.10;1.00;;;13.00;99.90;;;;;;2090664;28;20172;-72
2021/06/27 00:38:28;;;;;;;1.47;1.37;;;13.10;99.90;;;;;;2090366;28;20200;-72
2021/06/27 00:39:29;;;;;;;1.10;1.10;;;13.00;99.90;;;;;;2098292;28;20191;-72
2021/06/27 00:40:31;;;;;;;1.13;1.03;;;13.00;99.90;;;;;;2098360;28;20662;-72
2021/06/27 00:41:32;;;;;;;2.95;1.20;;;13.00;99.90;;;;;;2081807;28;20185;-71
2021/06/27 00:42:33;;;;;;;0.70;0.70;;;13.00;99.90;;;;;;2089546;28;20249;-73
2021/06/27 00:43:34;;;;;;;1.83;1.27;;;13.00;99.90;;;;;;2098209;28;20857;-72
2021/06/27 00:44:34;;;;;;;1.20;1.10;;;13.00;99.90;;;;;;2089916;28;20176;-73
2021/06/27 00:45:37;;;;;;;1.10;1.00;;;13.00;99.90;;;;;;2090041;28;20176;-72
2021/06/27 00:46:38;;;;;;;0.82;0.82;;;13.00;99.90;;;;;;2089979;28;20217;-72
2021/06/27 00:47:41;;;;;;;1.07;1.00;;;13.00;99.90;;;;;;2089977;28;20226;-72
2021/06/27 00:48:41;;;;;;;1.10;1.08;;;13.00;99.90;;;;;;2090070;28;20176;-72
2021/06/27 00:49:42;;;;;;;1.30;1.23;;;13.00;99.90;;;;;;2081419;28;20173;-72
2021/06/27 00:50:48;;;;;;;0.70;0.70;;;13.10;99.90;;;;;;2090119;28;20176;-72
2021/06/27 00:51:49;;;;;;;1.52;1.42;;;13.10;99.90;;;;;;2090444;28;20306;-72
2021/06/27 00:52:51;;;;;;;0.67;0.67;;;13.10;99.90;;;;;;2098168;28;20171;-73
2021/06/27 00:53:52;;;;;;;0.95;0.90;;;13.00;99.90;;;;;;2098063;28;20250;-72
2021/06/27 00:54:53;;;;;;;1.42;0.77;;;13.00;99.90;;;;;;2081637;28;20208;-72
2021/06/27 00:55:55;;;;;;;0.73;0.73;;;13.00;99.90;;;;;;2089828;28;20203;-72
2021/06/27 00:56:55;;;;;;;0.90;0.90;;;13.00;99.90;;;;;;2097935;28;20179;-72
2021/06/27 00:57:57;;;;;;;1.00;1.00;;;13.00;99.90;;;;;;2089803;28;20191;-72
2021/06/27 00:58:57;;;;;;;0.80;0.80;;;12.90;99.90;;;;;;2090513;28;20557;-73
2021/06/27 01:00:04;;;;;;;1.03;0.77;;;12.90;99.90;;;;;;2090251;28;20176;-72
2021/06/27 01:01:08;;;;;;;0.75;0.75;;;12.90;99.90;;;;;;2098257;28;20164;-72
2021/06/27 01:02:09;;;;;;;0.65;0.65;;;12.90;99.90;;;;;;2089642;28;20203;-72
2021/06/27 01:03:10;;;;;;;0.95;0.95;;;12.90;99.90;;;;;;2081604;28;20718;-72
2021/06/27 01:04:11;;;;;;;2.50;1.10;;;12.90;99.90;;;;;;2081682;28;20169;-73
2021/06/27 01:05:16;;;;;;;1.00;1.00;;;12.90;99.90;;;;;;2089911;28;20842;-72
2021/06/27 01:06:17;;;;;;;1.08;0.90;;;12.90;99.90;;;;;;2090579;28;20161;-72
2021/06/27 01:07:18;;;;;;;1.30;1.20;;;12.90;99.90;;;;;;2090588;28;20180;-72
2021/06/27 01:08:19;;;;;;;0.70;0.70;;;12.90;99.90;;;;;;2097986;28;20235;-72
2021/06/27 01:09:20;;;;;;;1.20;1.10;;;12.90;99.90;;;;;;2098192;28;20180;-72
2021/06/27 01:10:21;;;;;;;0.70;0.70;;;12.90;99.90;;;;;;2090301;28;20240;-72
2021/06/27 01:11:22;;;;;;;1.42;1.33;;;12.90;99.90;;;;;;2097988;28;20176;-72
2021/06/27 01:12:23;;;;;;;0.73;0.73;;;12.90;99.90;;;;;;2097711;28;20191;-72
2021/06/27 01:13:24;;;;;;;1.17;1.05;;;13.00;99.90;;;;;;2098158;28;20191;-72
2021/06/27 01:14:26;;;;;;;1.40;1.30;;;13.00;99.90;;;;;;2097837;28;20255;-72
2021/06/27 01:15:27;;;;;;;1.38;1.27;;;13.00;99.90;;;;;;2097986;28;20539;-73
2021/06/27 01:16:28;;;;;;;1.00;1.00;;;13.00;99.90;;;;;;2097755;28;20209;-72
2021/06/27 01:17:28;;;;;;;0.87;0.83;;;13.00;99.90;;;;;;2090308;28;20253;-72
2021/06/27 01:18:29;;;;;;;1.07;0.93;;;13.00;99.90;;;;;;2090193;28;20835;-72
2021/06/27 01:19:32;;;;;;;1.37;1.27;;;13.00;99.90;;;;;;2098035;28;20176;-74
2021/06/27 01:20:37;;;;;;;0.77;0.77;;;13.10;99.90;;;;;;2097578;28;20205;-72
2021/06/27 01:21:37;;;;;;;1.13;0.95;;;13.10;99.90;;;;;;2081212;28;20216;-73
2021/06/27 01:22:39;;;;;;;2.33;1.33;;;13.20;99.90;;;;;;2081040;28;20209;-72
2021/06/27 01:23:40;;;;;;;1.13;0.95;;;13.20;99.90;;;;;;2090306;28;20183;-72
2021/06/27 01:24:41;;;;;;;1.43;0.90;;;13.20;99.90;;;;;;2090306;28;20211;-72
2021/06/27 01:25:50;;;;;;;0.97;0.97;;;13.20;99.90;;;;;;2090221;28;20662;-72
2021/06/27 01:26:50;;;;;;;1.77;1.67;;;13.20;99.90;;;;;;2089268;28;20165;-73
2021/06/27 01:27:53;;;;;;;2.20;1.60;;;13.20;99.90;;;;;;2089600;28;20230;-72
2021/06/27 01:28:56;;;;;;;0.70;0.70;;;13.20;99.90;;;;;;2097801;28;20709;-72
2021/06/27 01:29:57;;;;;;;2.33;1.50;;;13.20;99.90;;;;;;2097713;28;20176;-72
2021/06/27 01:30:58;;;;;;;1.23;1.23;;;13.20;99.90;;;;;;2089587;28;20216;-72
2021/06/27 01:31:59;;;;;;;1.20;1.00;;;13.10;99.90;;;;;;2092481;28;20208;-72
2021/06/27 01:33:05;;;;;;;1.10;1.10;;;13.10;99.90;;;;;;2089833;28;20176;-72
2021/06/27 01:34:06;;;;;;;1.35;1.00;;;13.10;99.90;;;;;;2097856;28;20213;-72
2021/06/27 01:35:14;;;;;;;0.67;0.67;;;13.10;99.90;;;;;;2097670;28;20741;-72
2021/06/27 01:36:15;;;;;;;1.77;0.60;;;13.10;99.90;;;;;;2089711;28;20404;-72
2021/06/27 01:37:17;;;;;;;0.68;0.68;;;13.10;99.90;;;;;;2089944;28;20234;-73
2021/06/27 01:38:19;;;;;;;1.75;1.25;;;13.10;99.90;;;;;;2090107;28;20558;-72
2021/06/27 01:39:20;;;;;;;1.48;1.00;;;13.10;99.90;;;;;;2097611;28;20718;-73
2021/06/27 01:40:23;;;;;;;0.80;0.80;;;13.10;99.90;;;;;;2097718;28;20175;-72
2021/06/27 01:41:24;;;;;;;1.13;1.13;;;13.10;99.90;;;;;;2089987;28;20179;-72
2021/06/27 01:42:25;;;;;;;0.63;0.63;;;13.20;99.90;;;;;;2089806;28;20730;-72
2021/06/27 01:43:26;;;;;;;0.93;0.93;;;13.20;99.90;;;;;;2089924;28;20176;-72
2021/06/27 01:44:27;;;;;;;0.93;0.93;;;13.20;99.90;;;;;;2097821;28;20186;-72
2021/06/27 01:45:27;;;;;;;0.80;0.80;;;13.20;99.90;;;;;;2097681;28;20844;-72
2021/06/27 01:46:28;;;;;;;0.80;0.80;;;13.20;99.90;;;;;;2090126;28;20218;-72
2021/06/27 01:47:30;;;;;;;1.90;1.33;;;13.20;99.90;;;;;;2090083;28;20188;-72
2021/06/27 01:48:33;;;;;;;1.52;0.70;;;13.20;99.90;;;;;;2089986;28;20195;-72
2021/06/27 01:49:34;;;;;;;1.08;0.95;;;13.20;99.90;;;;;;2097682;28;20172;-72
2021/06/27 01:50:37;;;;;;;0.87;0.87;;;13.20;99.90;;;;;;2097739;28;20638;-72
2021/06/27 01:51:40;;;;;;;1.48;1.08;;;13.10;99.90;;;;;;2089887;28;20222;-72
2021/06/27 01:52:40;;;;;;;1.23;1.13;;;13.10;99.90;;;;;;2089732;28;20624;-72
2021/06/27 01:53:42;;;;;;;1.57;1.20;;;13.00;99.90;;;;;;2089840;28;20184;-72
2021/06/27 01:54:43;;;;;;;1.77;1.27;;;13.00;99.90;;;;;;2090216;28;20497;-72
2021/06/27 01:55:45;;;;;;;2.63;1.20;;;13.00;99.90;;;;;;2090055;28;20180;-72
2021/06/27 01:56:46;;;;;;;1.27;0.80;;;12.90;99.90;;;;;;2097536;28;20588;-72
2021/06/27 01:57:49;;;;;;;1.35;1.08;;;13.00;99.90;;;;;;2089257;28;20192;-72
2021/06/27 01:58:51;;;;;;;1.30;0.90;;;12.90;99.90;;;;;;2089446;28;20185;-71
2021/06/27 01:59:51;;;;;;;0.90;0.90;;;12.90;99.90;;;;;;2097402;28;20176;-71
2021/06/27 02:00:52;;;;;;;0.77;0.77;;;12.90;99.90;;;;;;2089927;28;20210;-71
2021/06/27 02:01:53;;;;;;;0.80;0.80;;;13.00;99.90;;;;;;2089758;28;20213;-71
2021/06/27 02:02:55;;;;;;;1.07;0.93;;;13.00;99.90;;;;;;2089773;28;20168;-71
2021/06/27 02:03:56;;;;;;;1.55;1.45;;;13.00;99.90;;;;;;2089231;28;20597;-71
2021/06/27 02:04:57;;;;;;;1.40;1.10;;;13.00;99.90;;;;;;2089271;28;20538;-71
2021/06/27 02:05:57;;;;;;;0.50;0.50;;;12.90;99.90;;;;;;2089954;28;20222;-71
2021/06/27 02:07:00;;;;;;;1.03;1.03;;;12.90;99.90;;;;;;2089836;28;20434;-71
2021/06/27 02:08:01;;;;;;;1.08;1.02;;;12.90;99.90;;;;;;2089110;28;20192;-71
2021/06/27 02:09:09;;;;;;;1.17;1.17;;;12.90;99.90;;;;;;2089012;28;20204;-71
2021/06/27 02:10:13;;;;;;;0.85;0.85;;;12.90;99.90;;;;;;2097552;28;20215;-71
2021/06/27 02:11:17;;;;;;;4.22;1.02;;;12.90;99.90;;;;;;2097059;28;20167;-71
2021/06/27 02:12:18;;;;;;;1.17;1.02;;;12.90;99.90;;;;;;2081100;28;20204;-71
2021/06/27 02:13:19;;;;;;;0.73;0.73;;;12.80;99.90;;;;;;2089242;28;20195;-71
2021/06/27 02:14:19;;;;;;;0.77;0.77;;;12.80;99.90;;;;;;2097070;28;20282;-72
2021/06/27 02:15:21;;;;;;;1.43;1.33;;;12.90;99.90;;;;;;2097539;28;20188;-71
2021/06/27 02:16:22;;;;;;;0.77;0.77;;;12.90;99.90;;;;;;2089738;28;20559;-70
2021/06/27 02:17:23;;;;;;;1.23;1.13;;;12.90;99.90;;;;;;2089196;28;20184;-71
2021/06/27 02:18:30;;;;;;;0.90;0.90;;;12.90;99.90;;;;;;2089187;28;20721;-71
2021/06/27 02:19:33;;;;;;;1.02;1.02;;;13.00;99.90;;;;;;2090037;28;20173;-71
2021/06/27 02:20:34;;;;;;;0.70;0.70;;;13.00;99.90;;;;;;2089677;28;20177;-72
2021/06/27 02:21:37;;;;;;;1.08;1.08;;;13.00;99.90;;;;;;2089861;28;20191;-71
2021/06/27 02:22:38;;;;;;;1.77;1.02;;;13.10;99.90;;;;;;2097224;28;20276;-71
2021/06/27 02:23:42;;;;;;;1.37;1.27;;;13.10;99.90;;;;;;2097584;28;20210;-71
2021/06/27 02:24:42;;;;;;;0.80;0.80;;;13.10;99.90;;;;;;2090227;28;20211;-72
2021/06/27 02:25:44;;;;;;;0.83;0.83;;;13.10;99.90;;;;;;2089573;28;20688;-71
2021/06/27 02:26:45;;;;;;;1.27;1.15;;;13.10;99.90;;;;;;2081384;28;20599;-71
2021/06/27 02:27:45;;;;;;;0.73;0.73;;;13.10;99.90;;;;;;2081673;28;20177;-71
2021/06/27 02:28:47;;;;;;;1.23;1.23;;;13.10;99.90;;;;;;2081746;28;20555;-70
2021/06/27 02:29:47;;;;;;;1.35;1.00;;;13.10;99.90;;;;;;2081169;28;20217;-70
2021/06/27 02:30:49;;;;;;;0.60;0.60;;;13.10;99.90;;;;;;2081228;28;20173;-71
2021/06/27 02:31:51;;;;;;;0.80;0.80;;;13.10;99.90;;;;;;2081914;28;20181;-70
2021/06/27 02:32:51;;;;;;;0.73;0.73;;;13.10;99.90;;;;;;2088664;28;20195;-70
2021/06/27 02:33:52;;;;;;;1.10;1.10;;;13.10;99.90;;;;;;2089126;28;20263;-70
2021/06/27 02:34:53;;;;;;;0.80;0.80;;;13.10;99.90;;;;;;2081307;28;20177;-70
2021/06/27 02:35:55;;;;;;;1.63;1.47;;;13.10;99.90;;;;;;2081344;28;20256;-70
2021/06/27 02:36:56;;;;;;;1.23;1.13;;;13.10;99.90;;;;;;2081544;28;20234;-70
2021/06/27 02:37:56;;;;;;;0.83;0.83;;;13.10;99.90;;;;;;2081460;28;20201;-70
2021/06/27 02:38:57;;;;;;;0.93;0.93;;;13.10;99.90;;;;;;2081347;28;20173;-70
2021/06/27 02:40:00;;;;;;;1.27;1.17;;;13.10;99.90;;;;;;2080904;28;20176;-70
2021/06/27 02:41:00;;;;;;;0.70;0.70;;;13.10;99.90;;;;;;2080671;28;20188;-70
2021/06/27 02:42:01;;;;;;;1.30;1.30;;;13.10;99.90;;;;;;2080702;28;20309;-70
2021/06/27 02:43:02;;;;;;;0.77;0.77;;;13.10;99.90;;;;;;2080450;28;20174;-70
2021/06/27 02:44:05;;;;;;;1.25;1.08;;;13.10;99.90;;;;;;2080735;28;20188;-71
2021/06/27 02:45:08;;;;;;;0.70;0.70;;;13.10;99.90;;;;;;2080619;28;20207;-70
2021/06/27 02:46:09;;;;;;;1.33;1.23;;;13.00;99.90;;;;;;2080755;28;20181;-70
2021/06/27 02:47:10;;;;;;;1.23;1.13;;;13.00;99.90;;;;;;2081261;28;20636;-70
2021/06/27 02:48:11;;;;;;;1.10;1.03;;;13.00;99.90;;;;;;2081356;28;20737;-70
2021/06/27 02:49:11;;;;;;;1.60;1.50;;;13.00;99.90;;;;;;2080171;28;20181;-71
2021/06/27 02:50:14;;;;;;;1.13;1.13;;;13.00;99.90;;;;;;2080895;28;20177;-70
2021/06/27 02:51:15;;;;;;;0.77;0.77;;;13.00;99.90;;;;;;2088465;28;20176;-70
2021/06/27 02:52:16;;;;;;;0.63;0.63;;;12.90;99.90;;;;;;2080591;28;20185;-70
2021/06/27 02:53:18;;;;;;;0.70;0.70;;;12.90;99.90;;;;;;2080598;28;20196;-71
2021/06/27 02:54:19;;;;;;;1.50;1.40;;;12.90;99.90;;;;;;2081334;28;20185;-70
2021/06/27 02:55:19;;;;;;;1.40;0.70;;;12.90;99.90;;;;;;2080518;28;20177;-70
2021/06/27 02:56:20;;;;;;;1.70;1.13;;;12.90;99.90;;;;;;2080665;28;20220;-70
2021/06/27 02:57:21;;;;;;;1.17;1.07;;;12.90;99.90;;;;;;2081312;28;20636;-70
2021/06/27 02:58:21;;;;;;;1.57;1.47;;;12.90;99.90;;;;;;2081185;28;20219;-71
2021/06/27 02:59:22;;;;;;;1.67;1.57;;;12.90;99.90;;;;;;2080649;28;20658;-70
2021/06/27 03:00:24;;;;;;;1.53;1.10;;;12.90;99.90;;;;;;2080692;28;20276;-70
2021/06/27 03:01:24;;;;;;;0.98;0.90;;;12.90;99.90;;;;;;2080658;28;20185;-71
2021/06/27 03:02:25;;;;;;;1.57;1.07;;;12.80;99.90;;;;;;2080146;28;20212;-71
2021/06/27 03:03:26;;;;;;;1.27;0.80;;;12.80;99.90;;;;;;2081322;28;20185;-70
2021/06/27 03:04:26;;;;;;;0.80;0.80;;;12.80;99.90;;;;;;2081069;28;20247;-70
2021/06/27 03:05:27;;;;;;;0.97;0.87;;;12.80;99.90;;;;;;2081205;28;20206;-70
2021/06/27 03:06:28;;;;;;;10.83;0.73;;;12.80;99.90;;;;;;2081048;28;20181;-70
2021/06/27 03:07:28;;;;;;;1.40;1.30;;;12.80;99.90;;;;;;2081076;28;20181;-70
2021/06/27 03:08:30;;;;;;;0.67;0.67;;;12.70;99.90;;;;;;2080856;28;20292;-70
2021/06/27 03:09:31;;;;;;;1.08;0.90;;;12.70;99.90;;;;;;2080433;28;20177;-70
2021/06/27 03:10:32;;;;;;;0.97;0.97;;;12.70;99.90;;;;;;2080326;28;20173;-70
2021/06/27 03:11:33;;;;;;;2.77;1.20;;;12.60;99.90;;;;;;2081038;28;20201;-70
2021/06/27 03:12:34;;;;;;;2.13;0.60;;;12.60;99.90;;;;;;2080671;28;20181;-70
2021/06/27 03:13:40;;;;;;;1.43;1.33;;;12.60;99.90;;;;;;2080389;28;20640;-70
2021/06/27 03:14:40;;;;;;;1.77;1.13;;;12.60;99.90;;;;;;2072702;28;20433;-70
2021/06/27 03:15:41;;;;;;;0.83;0.83;;;12.60;99.90;;;;;;2072152;28;20181;-70
2021/06/27 03:16:42;;;;;;;1.30;1.30;;;12.60;99.90;;;;;;2080334;28;20264;-70
2021/06/27 03:17:43;;;;;;;1.00;0.97;;;12.60;99.90;;;;;;2088555;28;20180;-70
2021/06/27 03:18:44;;;;;;;0.65;0.65;;;12.60;99.90;;;;;;2080201;28;20188;-71
2021/06/27 03:19:44;;;;;;;1.27;1.17;;;12.60;99.90;;;;;;2080404;28;20173;-70
2021/06/27 03:20:46;;;;;;;2.10;2.00;;;12.60;99.90;;;;;;2088566;28;20180;-70
2021/06/27 03:21:46;;;;;;;1.55;1.45;;;12.60;99.90;;;;;;2081005;28;20322;-70
2021/06/27 03:22:47;;;;;;;0.73;0.73;;;12.60;99.90;;;;;;2079930;28;20767;-70
2021/06/27 03:23:48;;;;;;;0.90;0.73;;;12.60;99.90;;;;;;2080339;28;20251;-70
2021/06/27 03:24:48;;;;;;;1.70;0.90;;;12.60;99.90;;;;;;2088474;28;20314;-70
2021/06/27 03:25:49;;;;;;;0.87;0.87;;;12.60;99.90;;;;;;2080383;28;20211;-70
2021/06/27 03:26:50;;;;;;;1.90;1.13;;;12.60;99.90;;;;;;2080234;28;20181;-70
2021/06/27 03:27:51;;;;;;;0.73;0.73;;;12.60;99.90;;;;;;2088551;28;20258;-70
2021/06/27 03:28:52;;;;;;;0.98;0.98;;;12.60;99.90;;;;;;2080104;28;20234;-70
2021/06/27 03:29:53;;;;;;;1.63;1.52;;;12.60;99.90;;;;;;2080386;28;20201;-70
2021/06/27 03:30:53;;;;;;;0.97;0.83;;;12.60;99.90;;;;;;2088422;28;20172;-70
2021/06/27 03:31:54;;;;;;;0.80;0.80;;;12.60;99.90;;;;;;2080961;28;20176;-70
2021/06/27 03:32:55;;;;;;;1.43;1.23;;;12.60;99.90;;;;;;2080062;28;20628;-70
2021/06/27 03:33:56;;;;;;;0.80;0.75;;;12.60;99.90;;;;;;2080406;28;20680;-70
2021/06/27 03:34:57;;;;;;;0.80;0.80;;;12.60;99.90;;;;;;2089767;28;20180;-70
2021/06/27 03:35:57;;;;;;;1.20;1.10;;;12.60;99.90;;;;;;2090571;28;20548;-70
2021/06/27 03:36:58;;;;;;;1.60;0.90;;;12.60;99.90;;;;;;2072092;28;20178;-70
2021/06/27 03:39:28;;;;;;;1.27;1.15;;;12.60;99.90;;;;;;2083493;28;20666;-70
2021/06/27 03:40:30;;;;;;;1.00;1.00;;;12.60;99.90;;;;;;2089227;28;20223;-70
2021/06/27 03:41:36;;;;;;;1.17;1.08;;;12.60;99.90;;;;;;2096714;28;20176;-70
2021/06/27 03:42:37;;;;;;;0.80;0.80;;;12.60;99.90;;;;;;2087556;28;20870;-70
2021/06/27 03:43:37;;;;;;;0.93;0.93;;;12.50;99.90;;;;;;2080199;28;20208;-70
2021/06/27 03:44:38;;;;;;;1.27;1.17;;;12.50;99.90;;;;;;2080900;28;20264;-70
2021/06/27 03:45:39;;;;;;;1.57;0.97;;;12.50;99.90;;;;;;2080740;28;20667;-70
2021/06/27 03:46:40;;;;;;;0.90;0.90;;;12.60;99.90;;;;;;2080838;28;20197;-70
2021/06/27 03:47:43;;;;;;;1.10;1.00;;;12.60;99.90;;;;;;2080656;28;20176;-71
2021/06/27 03:48:44;;;;;;;1.35;1.13;;;12.60;99.90;;;;;;2096751;28;20234;-71
2021/06/27 03:49:44;;;;;;;0.95;0.95;;;12.60;99.90;;;;;;2088297;28;20184;-71
2021/06/27 03:50:45;;;;;;;1.10;1.10;;;12.60;99.90;;;;;;2072021;28;20240;-71
2021/06/27 03:51:46;;;;;;;2.63;1.30;;;12.60;99.90;;;;;;2080199;28;20200;-71
2021/06/27 03:52:48;;;;;;;1.85;1.25;;;12.60;99.90;;;;;;2096621;28;20172;-71
2021/06/27 03:53:48;;;;;;;1.33;1.27;;;12.60;99.90;;;;;;2088372;28;20172;-71
2021/06/27 03:54:49;;;;;;;1.53;1.33;;;12.60;99.90;;;;;;2080349;28;20263;-71
2021/06/27 03:55:50;;;;;;;1.80;1.33;;;12.60;99.90;;;;;;2096636;28;20207;-71
2021/06/27 03:56:51;;;;;;;0.87;0.87;;;12.60;99.90;;;;;;2096741;28;20255;-70
2021/06/27 03:57:51;;;;;;;0.80;0.80;;;12.60;99.90;;;;;;2080748;28;20647;-70
2021/06/27 03:58:52;;;;;;;1.03;1.03;;;12.70;99.90;;;;;;2080845;28;20185;-71
2021/06/27 03:59:53;;;;;;;1.37;0.80;;;12.70;99.90;;;;;;2096828;28;20195;-70
2021/06/27 04:00:55;;;;;;;8.33;1.93;;;12.70;99.90;;;;;;2096854;28;20418;-70
2021/06/27 04:01:55;;;;;;;0.80;0.80;;;12.70;99.90;;;;;;2082609;28;20560;-71
2021/06/27 04:02:56;;;;;;;1.77;1.63;;;12.80;99.90;;;;;;2082262;28;20184;-71
2021/06/27 04:03:57;;;;;;;1.20;1.20;;;12.80;99.90;;;;;;2082761;28;20267;-70
2021/06/27 04:04:58;;;;;;;1.30;1.20;;;12.70;99.90;;;;;;2098312;28;20176;-70
2021/06/27 04:05:59;;;;;;;1.30;1.20;;;12.80;99.90;;;;;;2098455;28;20254;-71
2021/06/27 04:06:59;;;;;;;1.07;0.90;;;12.80;99.90;;;;;;2082279;28;20663;-71
2021/06/27 04:08:00;;;;;;;1.73;1.63;;;12.80;99.90;;;;;;2082469;28;20196;-70
2021/06/27 04:09:01;;;;;;;0.77;0.77;;;12.90;99.90;;;;;;2082393;28;20714;-70
2021/06/27 04:10:03;;;;;;;0.90;0.90;;;12.90;99.90;;;;;;2082482;28;20252;-70
2021/06/27 04:11:04;;;;;;;1.15;1.05;;;12.90;99.90;;;;;;2081680;28;20552;-70
2021/06/27 04:12:05;;;;;;;0.90;0.90;;;12.90;99.90;;;;;;2081781;28;20188;-71
2021/06/27 04:13:06;;;;;;;1.10;0.98;;;12.90;99.90;;;;;;2097974;28;20267;-70
2021/06/27 04:14:07;;;;;;;1.20;1.10;;;12.90;99.90;;;;;;2098289;28;20678;-70
2021/06/27 04:15:09;;;;;;;0.90;0.90;;;12.90;99.90;;;;;;2082284;28;20181;-70
2021/06/27 04:16:09;;;;;;;0.75;0.75;;;12.90;99.90;;;;;;2082466;28;20173;-71
2021/06/27 04:17:12;;;;;;;1.27;1.17;;;12.90;99.90;;;;;;2098169;28;20830;-70
2021/06/27 04:18:13;;;;;;;0.73;0.73;;;12.90;99.90;;;;;;2089684;28;20278;-70
2021/06/27 04:19:13;;;;;;;0.87;0.77;;;12.90;99.90;;;;;;2081623;28;20177;-70
2021/06/27 04:20:14;;;;;;;0.90;0.90;;;12.90;99.90;;;;;;2082398;28;20177;-70
2021/06/27 04:21:15;;;;;;;0.70;0.70;;;13.00;99.90;;;;;;2082296;28;20643;-71
2021/06/27 04:22:17;;;;;;;1.33;1.07;;;13.00;99.90;;;;;;2081499;28;20592;-71
2021/06/27 04:23:19;;;;;;;1.83;1.40;;;13.10;99.90;;;;;;2081705;28;20663;-71
2021/06/27 04:24:19;;;;;;;0.93;0.93;;;13.10;99.90;;;;;;2082412;28;20191;-71
2021/06/27 04:25:20;;;;;;;0.73;0.73;;;13.10;99.90;;;;;;2080988;28;20192;-70
2021/06/27 04:26:21;;;;;;;0.80;0.80;;;13.20;99.90;;;;;;2081306;28;20288;-70
2021/06/27 04:27:22;;;;;;;1.17;1.07;;;13.30;99.90;;;;;;2090607;28;20191;-71
2021/06/27 04:28:23;;;;;;;1.37;1.27;;;13.30;99.90;;;;;;2089991;28;20287;-71
2021/06/27 04:29:23;;;;;;;1.23;1.13;;;13.40;99.90;;;;;;2090132;28;20184;-71
2021/06/27 04:30:24;;;;;;;0.60;0.60;;;13.40;99.90;;;;;;2090784;28;20189;-71
2021/06/27 04:31:25;;;;;;;0.70;0.70;;;13.40;99.90;;;;;;2090515;28;20176;-72
2021/06/27 04:32:25;;;;;;;1.30;1.20;;;13.40;99.90;;;;;;2089840;28;20184;-71
2021/06/27 04:33:26;;;;;;;1.47;0.90;;;13.40;99.90;;;;;;2089802;28;20180;-71
2021/06/27 04:34:27;;;;;;;1.90;1.27;;;13.40;99.90;;;;;;2089910;28;20204;-71
2021/06/27 04:35:28;;;;;;;1.10;1.10;;;13.40;99.90;;;;;;2089920;28;20643;-72
2021/06/27 04:36:28;;;;;;;5.53;2.70;;;13.40;99.90;;;;;;2089915;28;20384;-72
2021/06/27 04:37:29;;;;;;;2.43;1.80;;;13.50;99.90;;;;;;2089893;28;20184;-72
2021/06/27 04:38:30;;;;;;;3.53;2.87;;;13.50;99.90;;;;;;2098022;28;20633;-73
2021/06/27 04:39:30;;;;;;;2.83;2.63;;;13.60;99.90;;;;;;2090473;28;20235;-73
2021/06/27 04:40:33;;;;;;;3.63;3.23;;;13.60;99.90;;;;;;2081514;28;20185;-73
2021/06/27 04:41:34;;;;;;;2.83;2.53;;;13.60;99.90;;;;;;2081929;28;20181;-73
2021/06/27 04:42:35;;;;;;;3.80;3.45;;;13.60;99.90;;;;;;2090052;28;20584;-73
2021/06/27 04:43:36;;;;;;;6.30;3.70;;;13.60;99.90;;;;;;2090411;28;20267;-71
2021/06/27 04:44:37;;;;;;;3.60;3.27;;;13.60;99.90;;;;;;2097992;28;20187;-70
2021/06/27 04:45:40;;;;;;;2.90;2.70;;;13.60;99.90;;;;;;2098181;28;20180;-70
2021/06/27 04:46:41;;;;;;;3.10;2.35;;;13.60;99.90;;;;;;2098080;28;20180;-72
2021/06/27 04:47:42;;;;;;;1.48;1.38;;;13.70;99.90;;;;;;2098061;28;20225;-71
2021/06/27 04:48:43;;;;;;;3.43;1.47;;;13.70;99.90;;;;;;2089752;28;20695;-70
2021/06/27 04:49:44;;;;;;;2.70;1.60;;;13.80;99.90;;;;;;2089786;28;20605;-70
2021/06/27 04:50:46;;;;;;;1.23;1.20;;;13.80;99.90;;;;;;2098007;28;20262;-70
2021/06/27 04:51:47;;;;;;;0.55;0.55;;;13.80;99.90;;;;;;2081511;28;20181;-70
2021/06/27 04:52:51;;;;;;;0.90;0.90;;;13.90;99.90;;;;;;2073171;28;20695;-71
2021/06/27 04:53:52;;;;;;;1.50;1.27;;;13.90;99.90;;;;;;2089834;28;20284;-70
2021/06/27 04:54:53;;;;;;;3.70;1.20;;;14.00;99.90;;;;;;2090297;28;20185;-71
2021/06/27 04:55:58;;;;;;;1.37;1.10;;;14.00;99.90;;;;;;2090417;28;20180;-72
2021/06/27 04:56:59;;;;;;;0.82;0.82;;;14.00;99.90;;;;;;2090267;28;20231;-70
2021/06/27 04:57:59;;;;;;;1.13;1.13;;;14.10;99.90;;;;;;2090288;28;20242;-70
2021/06/27 04:59:00;;;;;;;0.87;0.80;;;14.10;99.90;;;;;;2090277;28;20180;-72
2021/06/27 05:00:05;;;;;;;0.80;0.80;;;14.10;99.90;;;;;;2089731;28;20168;-71
2021/06/27 05:01:06;;;;;;;0.60;0.60;;;14.10;99.90;;;;;;2089623;28;20183;-71
2021/06/27 05:02:06;;;;;;;0.70;0.70;;;14.10;99.90;;;;;;2089700;28;20176;-70
2021/06/27 05:03:07;;;;;;;1.33;1.23;;;14.10;99.90;;;;;;2089435;28;20183;-71
2021/06/27 05:04:08;;;;;;;1.27;1.17;;;14.10;99.90;;;;;;2090356;28;20172;-71
2021/06/27 05:05:10;;;;;;;0.80;0.80;;;14.20;99.90;;;;;;2090141;28;20203;-70
2021/06/27 05:06:10;;;;;;;0.77;0.77;;;14.20;99.90;;;;;;2089638;28;20188;-70
2021/06/27 05:07:11;;;;;;;0.97;0.97;;;14.20;99.90;;;;;;2089565;28;20192;-70
2021/06/27 05:08:12;;;;;;;1.20;0.80;;;14.20;99.90;;;;;;2090234;28;20200;-70
2021/06/27 05:09:13;;;;;;;0.50;0.50;;;14.20;99.90;;;;;;2090213;28;20172;-71
2021/06/27 05:10:14;;;;;;;1.70;1.17;;;14.30;99.90;;;;;;2089702;28;20269;-70
2021/06/27 05:11:15;;;;;;;0.85;0.85;;;14.30;99.90;;;;;;2089476;28;20172;-70
2021/06/27 05:12:16;;;;;;;1.00;1.00;;;14.30;99.90;;;;;;2089724;28;20169;-70
2021/06/27 05:13:16;;;;;;;1.27;1.05;;;14.30;99.90;;;;;;2089490;28;20211;-70
2021/06/27 05:14:17;;;;;;;0.97;0.97;;;14.30;99.90;;;;;;2089686;28;20176;-70
2021/06/27 05:15:18;;;;;;;3.40;1.27;;;14.30;99.90;;;;;;2089454;28;20169;-70
2021/06/27 05:16:18;;;;;;;2.43;0.97;;;14.30;99.90;;;;;;2089603;28;20267;-70
2021/06/27 05:17:20;;;;;;;1.13;1.03;;;14.20;99.90;;;;;;2090105;28;20208;-70
2021/06/27 05:18:20;;;;;;;0.77;0.77;;;14.30;99.90;;;;;;2090214;28;20211;-70
2021/06/27 05:19:21;;;;;;;0.93;0.93;;;14.20;99.90;;;;;;2089448;28;20176;-70
2021/06/27 05:20:22;;;;;;;1.07;1.07;;;14.20;99.90;;;;;;2089609;28;20180;-70
2021/06/27 05:21:23;;;;;;;0.73;0.73;;;14.20;99.90;;;;;;2090092;28;20188;-70